Nearby METAR Reports - 80 Mile Radius
Meteorological Terminal Air Report (METAR)


KBWI - Balto/Wash Intl Airport, Maryland
Distance from station: S 5mi, 8km
Updated: Sat, 04-Jul-2020 5:54am EDT
Clear
Clear
 Wind from calm
Wind: Calm
Temperature: 72°F , 22°C
Dew Point: 66°F , 19°C
Humidity: 83%
Barometer: 29.88 inHg , 1011.9 hPa
Clouds: Clear
Visibility: 10 miles , 16 km
2020/07/04 09:54 KBWI 040954Z 00000KT 10SM CLR 22/19 A2988 RMK AO2 SLP117 T02220189
KDMH - Baltimore/Dwntwn, Maryland
Distance from station: NE 5mi, 9km
Updated: Thu, 04-Jun-2020 7:54am EDT
NOT Current

 
Barometer: 29.88 inHg , 1011.9 hPa
2020/06/04 11:54 KDMH 041154Z AUTO A2988 RMK AO1 SLP120 6//// 7//// 53020 PNO $
KFME - Fort Meade/Tipton AAF, Maryland
Distance from station: SSW 11mi, 18km
Updated: Fri, 03-Jul-2020 12:55pm EDT
NOT Current

 Wind from WNW
Wind: WNW 7 mph , 11 km/h
Temperature: 90°F , 32°C
Heat Index: 92°F , 33°C
Dew Point: 64°F , 18°C
Humidity: 43%
Barometer: 29.91 inHg , 1012.9 hPa
Visibility: 10 miles , 16 km
2020/07/03 16:55 KFME 031655Z AUTO 29006KT 10SM 32/18 A2991 RMK AO1
 
KMTN - Balto/Martin State Airport, Maryland
Distance from station: ENE 16mi, 26km
Updated: Sat, 04-Jul-2020 5:54am EDT
Clear
Clear
 Wind from calm
Wind: Calm
Temperature: 73°F , 23°C
Dew Point: 70°F , 21°C
Humidity: 89%
Barometer: 29.89 inHg , 1012.2 hPa
Clouds: Clear
Visibility: 10 miles , 16 km
2020/07/04 09:54 KMTN 040954Z 00000KT 10SM SKC 23/21 A2989
KCGS - College Park Airport, Maryland
Distance from station: SSW 21mi, 34km
Updated: Sat, 04-Jul-2020 6:35am EDT
Clear
Clear
 Wind from calm
Wind: Calm
Temperature: 70°F , 21°C
Dew Point: 64°F , 18°C
Humidity: 83%
Barometer: 29.90 inHg , 1012.5 hPa
Clouds: Clear
Visibility: 10 miles , 16 km
2020/07/04 10:35 KCGS 041035Z AUTO 00000KT 10SM CLR 21/18 A2990 RMK AO1 T02130179
KNAK - Annapolis/Naval Academy, Maryland
Distance from station: SE 21mi, 34km
Updated: Sat, 04-Jul-2020 5:54am EDT
Clear
Clear
 Wind from N
Wind: N 6 mph , 9 km/h
Temperature: 77°F , 25°C
Dew Point: 70°F , 21°C
Humidity: 79%
Barometer: 29.88 inHg , 1011.9 hPa
Clouds: Clear
Visibility: 10 miles , 16 km
2020/07/04 09:54 KNAK 040954Z AUTO 36005KT 10SM CLR 25/21 A2988 RMK AO2 SLP119 T02500206 $
 
KGAI - Gaithersburg/Montgomery Co Airpark, Maryland
Distance from station: W 26mi, 41km
Updated: Sat, 04-Jul-2020 5:56am EDT
Clear
Clear
 Wind from calm
Wind: Calm
Temperature: 70°F , 21°C
Dew Point: 66°F , 19°C
Humidity: 88%
Barometer: 29.92 inHg , 1013.2 hPa
Clouds: Clear
Visibility: 10 miles , 16 km
2020/07/04 09:56 KGAI 040956Z AUTO 00000KT 10SM CLR 21/19 A2992 RMK AO2 SLP140 T02060189
KW29 - Stevensville/Bay Bridge Airport, Maryland
Distance from station: SE 26mi, 42km
Updated: Sat, 04-Jul-2020 6:35am EDT
Clear
Clear
 Wind from NE
Wind: NE 5 mph , 7 km/h
Temperature: 77°F , 25°C
Dew Point: 73°F , 23°C
Humidity: 89%
Barometer: 29.89 inHg , 1012.2 hPa
Clouds: Clear
Visibility: 7 miles , 11 km
2020/07/04 10:35 KW29 041035Z AUTO 04004KT 7SM CLR 25/23 A2989 RMK AO2
KDMW - Carroll Co Regional Airport, Maryland
Distance from station: NNW 30mi, 48km
Updated: Sat, 04-Jul-2020 6:35am EDT
Clear
Clear
 Wind from calm
Wind: Calm
Temperature: 73°F , 23°C
Dew Point: 68°F , 20°C
Humidity: 83%
Barometer: 29.94 inHg , 1013.9 hPa
Clouds: Clear
Visibility: 10 miles , 16 km
2020/07/04 10:35 KDMW 041035Z AUTO 00000KT 10SM CLR 23/20 A2994 RMK AO2
 
KADW - Andrews AFB, Maryland
Distance from station: SSW 30mi, 49km
Updated: Sat, 04-Jul-2020 5:56am EDT
Clear
Clear
 Wind from calm
Wind: Calm
Temperature: 73°F , 23°C
Dew Point: 64°F , 18°C
Humidity: 74%
Barometer: 29.89 inHg , 1012.2 hPa
Clouds: Clear
Visibility: 10 miles , 16 km
2020/07/04 09:56 KADW 040956Z AUTO 00000KT 10SM CLR 23/18 A2989 RMK AO2 SLP126 T02250184 $
KAPG - Aberdeen/Phillip AAF, Maryland
Distance from station: ENE 32mi, 52km
Updated: Sat, 04-Jul-2020 5:58am EDT
Clear
Clear
 Wind from NNE
Wind: NNE 5 mph , 7 km/h
Temperature: 72°F , 22°C
Dew Point: 68°F , 20°C
Humidity: 88%
Barometer: 29.88 inHg , 1011.9 hPa
Clouds: Clear
Visibility: 9 miles , 14 km
2020/07/04 09:58 KAPG 040958Z AUTO 03004KT 9SM CLR 22/20 A2988 RMK AO2 SLP121 T02150196 $
KDCA - Washington/Natl Airport, Washington D.C.
Distance from station: SW 32mi, 52km
Updated: Sat, 04-Jul-2020 5:52am EDT
Few Clouds
Few Clouds
 Wind from NNW
Wind: NNW 6 mph , 9 km/h
Temperature: 79°F , 26°C
Dew Point: 66°F , 19°C
Humidity: 65%
Barometer: 29.89 inHg , 1012.2 hPa
Clouds: Few Clouds
Visibility: 10 miles , 16 km
Cloud details: Few Clouds 25000 ft
2020/07/04 09:52 KDCA 040952Z 34005KT 10SM FEW250 26/19 A2989 RMK AO2 SLP122 T02560194
 
KFDK - Frederick Municipal Airport, Maryland
Distance from station: WNW 38mi, 61km
Updated: Sat, 04-Jul-2020 6:15am EDT
Mist, Clear
Mist, Clear
 Wind from calm
Wind: Calm
Temperature: 68°F , 20°C
Dew Point: 66°F , 19°C
Humidity: 94%
Barometer: 29.92 inHg , 1013.2 hPa
Summary: Mist
Clouds: Clear
Visibility: 5 miles , 8 km
2020/07/04 10:15 KFDK 041015Z AUTO 00000KT 5SM BR CLR 20/19 A2992 RMK AO2
KDAA - Fort Belvoir/Davison AAF, Virginia
Distance from station: SW 44mi, 71km
Updated: Sat, 04-Jul-2020 5:56am EDT

 Wind from calm
Wind: Calm
Visibility: 10 miles , 16 km
2020/07/04 09:56 KDAA 040956Z AUTO 00000KT 10SM M 23/20 A2989 RMK AO2 SLP124 T02280199 $
KESN - Easton/Newnam Field Airport, Maryland
Distance from station: SE 45mi, 73km
Updated: Sat, 04-Jul-2020 5:50am EDT
Clear
Clear
 Wind from calm
Wind: Calm
Temperature: 73°F , 23°C
Dew Point: 70°F , 21°C
Humidity: 89%
Barometer: 29.91 inHg , 1012.9 hPa
Clouds: Clear
Visibility: 10 miles , 16 km
2020/07/04 09:50 KESN 040950Z 00000KT 10SM SKC 23/21 A2991
 
KIAD - Wash DC/Dulles Intl, Virginia
Distance from station: WSW 45mi, 73km
Updated: Sat, 04-Jul-2020 5:52am EDT
Clear
Clear
 Wind from W
Wind: W 3 mph , 6 km/h
Temperature: 70°F , 21°C
Dew Point: 64°F , 18°C
Humidity: 83%
Barometer: 29.90 inHg , 1012.5 hPa
Clouds: Clear
Visibility: 10 miles , 16 km
2020/07/04 09:52 KIAD 040952Z 28003KT 10SM CLR 21/18 A2990 RMK AO2 SLP122 T02110178
KJYO - Leesburg/Godfrey Field, Virginia
Distance from station: WSW 48mi, 77km
Updated: Sat, 04-Jul-2020 6:35am EDT
Clear
Clear
 Wind from calm
Wind: Calm
Temperature: 70°F , 21°C
Dew Point: 68°F , 20°C
Humidity: 94%
Barometer: 29.93 inHg , 1013.5 hPa
Clouds: Clear
Visibility: 10 miles , 16 km
2020/07/04 10:35 KJYO 041035Z AUTO 00000KT 10SM CLR 21/20 A2993 RMK AO2
KTHV - York Airport, Pennsylvania
Distance from station: NNW 48mi, 77km
Updated: Sat, 04-Jul-2020 5:53am EDT
Mist, Clear
Mist, Clear
 Wind from calm
Wind: Calm
Temperature: 64°F , 18°C
Dew Point: 63°F , 17°C
Humidity: 94%
Barometer: 29.91 inHg , 1012.9 hPa
Summary: Mist
Clouds: Clear
Visibility: 4 miles , 6 km
2020/07/04 09:53 KTHV 040953Z AUTO 00000KT 4SM BR CLR 18/17 A2991 RMK AO2 SLP128 T01830167
 
KRSP - Naval Support Fac Thurmont, Maryland, USA
Distance from station: NW 50mi, 81km
Updated: Sat, 04-Jul-2020 5:54am EDT
Clear
Clear
 Wind from varies
Wind: varies 5 mph , 7 km/h
Barometer: 29.98 inHg , 1015.2 hPa
Clouds: Clear
Visibility: 10 miles , 16 km
2020/07/04 09:54 KRSP 040954Z AUTO VRB04KT 10SM CLR A2998 RMK AO2 SLPNO $
KRYT - Fountain Dale Airport, Pennsylvania
Distance from station: NW 52mi, 84km
Updated: Mon, 13-Nov-2017 7:53am EST
NOT Current
Mist, Overcast
Mist, Overcast
 Wind from calm
Wind: Calm
Temperature: 37°F , 3°C
Dew Point: 34°F , 1°C
Humidity: 87%
Barometer: 30.31 inHg , 1026.4 hPa
Summary: Mist
Clouds: Overcast
Visibility: 5 miles , 8 km
Cloud details: Overcast 700 ft
2017/11/13 12:53 KRYT 131253Z AUTO 00000KT 5SM BR OVC007 03/01 A3031 RMK AO2 SLP275 T00280011 TSNO $
KHEF - Manassas Municipal Airport, Virginia
Distance from station: SW 57mi, 91km
Updated: Sat, 04-Jul-2020 6:16am EDT
Few Clouds
Few Clouds
 Wind from calm
Wind: Calm
Temperature: 70°F , 21°C
Dew Point: 66°F , 19°C
Humidity: 88%
Barometer: 29.91 inHg , 1012.9 hPa
Clouds: Few Clouds
Visibility: 10 miles , 16 km
Cloud details: Few Clouds 200 ft
2020/07/04 10:16 KHEF 041016Z AUTO 00000KT 10SM FEW002 21/19 A2991 RMK AO2
 
KNYG - Quantico Marine Corps Air Fac, Virginia
Distance from station: SSW 60mi, 96km
Updated: Sat, 04-Jul-2020 5:56am EDT
Clear
Clear
 Wind from NNW
Wind: NNW 6 mph , 9 km/h
Temperature: 79°F , 26°C
Dew Point: 64°F , 18°C
Humidity: 61%
Barometer: 29.89 inHg , 1012.2 hPa
Clouds: Clear
Visibility: 8 miles , 13 km
2020/07/04 09:56 KNYG 040956Z AUTO 33005KT 8SM CLR 26/18 A2989 RMK AO2 SLP123 T02560178
KCGE - Cambridge-Dorchester Reg Airport, Maryland
Distance from station: SE 60mi, 97km
Updated: Sat, 04-Jul-2020 6:35am EDT
Clear
Clear
 Wind from NNE
Wind: NNE 6 mph , 9 km/h
Temperature: 75°F , 24°C
Dew Point: 72°F , 22°C
Humidity: 89%
Barometer: 29.88 inHg , 1011.9 hPa
Clouds: Clear
Visibility: 10 miles , 16 km
2020/07/04 10:35 KCGE 041035Z AUTO 03005KT 10SM CLR 24/22 A2988 RMK A01
K2W6 - St Marys Co Reg Airport, Maryland
Distance from station: SSE 64mi, 103km
Updated: Fri, 03-Jul-2020 7:35pm EDT
NOT Current
Partly Cloudy
Partly Cloudy
 Wind from calm
Wind: Calm
Temperature: 84°F , 29°C
Heat Index: 89°F , 32°C
Dew Point: 72°F , 22°C
Humidity: 66%
Barometer: 29.85 inHg , 1010.8 hPa
Clouds: Partly Cloudy
Visibility: 10 miles , 16 km
Cloud details: Partly Cloudy 7000 ft
2020/07/03 23:35 K2W6 032335Z AUTO 00000KT 10SM SCT070 29/22 A2985 RMK AO1
 
KHGR - Hagerstown Reg Airport, Maryland
Distance from station: WNW 64mi, 103km
Updated: Sat, 04-Jul-2020 5:53am EDT
Clear
Clear
 Wind from calm
Wind: Calm
Temperature: 73°F , 23°C
Dew Point: 64°F , 18°C
Humidity: 74%
Barometer: 29.93 inHg , 1013.5 hPa
Clouds: Clear
Visibility: 10 miles , 16 km
2020/07/04 09:53 KHGR 040953Z AUTO 00000KT 10SM CLR 23/18 A2993 RMK AO2 SLP135 T02330183
KLNS - Lancaster Airport, Pennsylvania
Distance from station: NNE 64mi, 104km
Updated: Sat, 04-Jul-2020 5:53am EDT
Mist, Clear
Mist, Clear
 Wind from calm
Wind: Calm
Temperature: 70°F , 21°C
Dew Point: 66°F , 19°C
Humidity: 88%
Barometer: 29.91 inHg , 1012.9 hPa
Summary: Mist
Clouds: Clear
Visibility: 6 miles , 10 km
2020/07/04 09:53 KLNS 040953Z 00000KT 6SM BR CLR 21/19 A2991 RMK AO2 SLP124 T02060189
KILG - New Castle Airport, Wilmington, Delaware
Distance from station: ENE 66mi, 106km
Updated: Sat, 04-Jul-2020 6:09am EDT
Mostly Cloudy
Mostly Cloudy
 Wind from N
Wind: N 5 mph , 7 km/h
Temperature: 72°F , 22°C
Dew Point: 68°F , 20°C
Humidity: 88%
Barometer: 29.90 inHg , 1012.5 hPa
Clouds: Mostly Cloudy
Visibility: 10 miles , 16 km
Cloud details: Mostly Cloudy 1000 ft
2020/07/04 10:09 KILG 041009Z 01004KT 10SM BKN010 22/20 A2990 RMK AO2 T02170200
 
KDOV - Dover Air Force Base, Delaware
Distance from station: E 66mi, 107km
Updated: Sat, 04-Jul-2020 6:26am EDT
Overcast
Overcast
 Wind from NNE
Wind: NNE 7 mph , 11 km/h
Temperature: 73°F , 23°C
Dew Point: 73°F , 23°C
Humidity: 100%
Barometer: 29.89 inHg , 1012.2 hPa
Clouds: Overcast
Visibility: 10 miles , 16 km
Cloud details: Overcast 1000 ft
2020/07/04 10:26 KDOV 041026Z 03006KT 10SM OVC010 23/23 A2989 RMK AO2A SLP125 $
KMDT - Harrisburg Intl Airport, Middletown, Pennsylvania
Distance from station: N 67mi, 107km
Updated: Sat, 04-Jul-2020 5:56am EDT
Clear
Clear
 Wind from WNW
Wind: WNW 6 mph , 9 km/h
Temperature: 73°F , 23°C
Dew Point: 68°F , 20°C
Humidity: 83%
Barometer: 29.90 inHg , 1012.5 hPa
Clouds: Clear
Visibility: 10 miles , 16 km
2020/07/04 09:56 KMDT 040956Z 30005KT 10SM CLR 23/20 A2990 RMK AO2 SLP124 T02280200
KMQS - Chester Co Carlson Airport, Coatesville, Pennsylvania
Distance from station: NE 68mi, 109km
Updated: Sat, 04-Jul-2020 6:35am EDT
Mist, Mostly cloudy
Mist, Mostly cloudy
 Wind from calm
Wind: Calm
Temperature: 70°F , 21°C
Dew Point: 68°F , 20°C
Humidity: 94%
Barometer: 29.94 inHg , 1013.9 hPa
Summary: Mist
Clouds: Mostly Cloudy
Visibility: 4 miles , 6 km
Cloud details: Mostly Cloudy 200 ft
2020/07/04 10:35 KMQS 041035Z AUTO 00000KT 4SM BR BKN002 21/20 A2994 RMK AO2
 
KCXY - Capital City Airport, Harrisburg, Pennsylvania
Distance from station: N 68mi, 110km
Updated: Sat, 04-Jul-2020 5:56am EDT
Clear
Clear
 Wind from W
Wind: W 3 mph , 6 km/h
Temperature: 72°F , 22°C
Dew Point: 66°F , 19°C
Humidity: 83%
Barometer: 29.91 inHg , 1012.9 hPa
Clouds: Clear
Visibility: 10 miles , 16 km
2020/07/04 09:56 KCXY 040956Z AUTO 28003KT 10SM CLR 22/19 A2991 RMK AO2 SLP126 T02170189
KNHK - Patuxent River NAS, Maryland
Distance from station: SE 69mi, 111km
Updated: Sat, 04-Jul-2020 5:52am EDT
Clear
Clear
 Wind from NW
Wind: NW 8 mph , 13 km/h
Temperature: 79°F , 26°C
Dew Point: 73°F , 23°C
Humidity: 84%
Barometer: 29.86 inHg , 1011.2 hPa
Clouds: Clear
Visibility: 9 miles , 14 km
2020/07/04 09:52 KNHK 040952Z AUTO 31007KT 9SM CLR 26/23 A2986 RMK AO2 CIG 110 RY24 SLP113 T02560233 $
KMRB - Eastern WV Reg Airport/Shepherd Field, Martinsburg, West Virginia
Distance from station: W 70mi, 112km
Updated: Sat, 04-Jul-2020 5:53am EDT
Clear
Clear
 Wind from calm
Wind: Calm
Temperature: 66°F , 19°C
Dew Point: 64°F , 18°C
Humidity: 94%
Barometer: 29.91 inHg , 1012.9 hPa
Clouds: Clear
Visibility: 9 miles , 14 km
2020/07/04 09:53 KMRB 040953Z AUTO 00000KT 9SM CLR 19/18 A2991 RMK AO2 SLP123 T01940178
 
KHWY - Warrenton-Fauquier Airport, Warrenton, Virginia
Distance from station: SW 71mi, 114km
Updated: Sat, 04-Jul-2020 6:35am EDT
Clear
Clear
 Wind from calm
Wind: Calm
Temperature: 70°F , 21°C
Dew Point: 66°F , 19°C
Humidity: 88%
Barometer: 29.91 inHg , 1012.9 hPa
Clouds: Clear
Visibility: 10 miles , 16 km
2020/07/04 10:35 KHWY 041035Z AUTO 00000KT 10SM CLR 21/19 A2991 RMK AO2 T02070191
KRMN - Stafford Regional Airport, Virginia
Distance from station: SW 71mi, 114km
Updated: Sat, 04-Jul-2020 6:35am EDT
Clear
Clear
 Wind from calm
Wind: Calm
Temperature: 72°F , 22°C
Dew Point: 70°F , 21°C
Humidity: 94%
Barometer: 29.94 inHg , 1013.9 hPa
Clouds: Clear
Visibility: 10 miles , 16 km
2020/07/04 10:35 KRMN 041035Z AUTO 00000KT 10SM CLR 22/21 A2994 RMK AO2 T02210211
KNUI - Webster Naval, St Inigoes, Maryland
Distance from station: S 76mi, 123km
Updated: Sat, 04-Jul-2020 5:53am EDT
Clear
Clear
 Wind from calm
Wind: Calm
Temperature: 75°F , 24°C
Dew Point: 72°F , 22°C
Humidity: 89%
Barometer: 29.86 inHg , 1011.2 hPa
Clouds: Clear
Visibility: 10 miles , 16 km
2020/07/04 09:53 KNUI 040953Z AUTO 00000KT 10SM CLR 24/22 A2986 RMK AO2 SLP111 T02440217
 
KEZF - Fredericksburg/Shan, Virginia
Distance from station: SSW 78mi, 126km
Updated: Sat, 04-Jul-2020 6:35am EDT
Clear
Clear
 Wind from calm
Wind: Calm
Temperature: 73°F , 23°C
Dew Point: 70°F , 21°C
Humidity: 89%
Barometer: 29.89 inHg , 1012.2 hPa
Clouds: Clear
Visibility: 10 miles , 16 km
2020/07/04 10:35 KEZF 041035Z AUTO 00000KT 10SM CLR 23/21 A2989 RMK AO2 T02310207
KOKV - Winchester Regional Airport, Virginia
Distance from station: W 78mi, 126km
Updated: Sat, 04-Jul-2020 6:35am EDT
Clear
Clear
 Wind from calm
Wind: Calm
Temperature: 68°F , 20°C
Dew Point: 63°F , 17°C
Humidity: 83%
Barometer: 29.94 inHg , 1013.9 hPa
Clouds: Clear
Visibility: 10 miles , 16 km
2020/07/04 10:35 KOKV 041035Z AUTO 00000KT 10SM CLR 20/17 A2994 RMK AO2
KCJR - Culpeper Regional Airport, Virginia
Distance from station: SW 79mi, 128km
Updated: Sat, 04-Jul-2020 6:35am EDT
Clear
Clear
 Wind from calm
Wind: Calm
Temperature: 70°F , 21°C
Dew Point: 68°F , 20°C
Humidity: 94%
Barometer: 29.93 inHg , 1013.5 hPa
Clouds: Clear
Visibility: 10 miles , 16 km
2020/07/04 10:35 KCJR 041035Z AUTO 00000KT 10SM CLR 21/20 A2993 RMK AO2 T02100200
canadians